sensor_id;sensor_type;location;lat;lon;timestamp;P1;durP1;ratioP1;P2;durP2;ratioP2
54191;SDS011;40101;53.002;6.488;2022-12-13T00:01:27;40.88;;;23.45;;
54191;SDS011;40101;53.002;6.488;2022-12-13T00:03:55;37.28;;;20.90;;
54191;SDS011;40101;53.002;6.488;2022-12-13T00:06:21;39.08;;;21.17;;
54191;SDS011;40101;53.002;6.488;2022-12-13T00:08:47;44.65;;;21.95;;
54191;SDS011;40101;53.002;6.488;2022-12-13T00:11:13;43.70;;;22.13;;
54191;SDS011;40101;53.002;6.488;2022-12-13T00:13:41;41.47;;;21.55;;
54191;SDS011;40101;53.002;6.488;2022-12-13T00:16:11;42.78;;;21.27;;
54191;SDS011;40101;53.002;6.488;2022-12-13T00:18:42;42.45;;;21.30;;
54191;SDS011;40101;53.002;6.488;2022-12-13T00:21:10;36.88;;;20.77;;
54191;SDS011;40101;53.002;6.488;2022-12-13T00:23:38;43.75;;;23.85;;
54191;SDS011;40101;53.002;6.488;2022-12-13T00:26:04;44.10;;;23.08;;
54191;SDS011;40101;53.002;6.488;2022-12-13T00:28:31;44.53;;;23.17;;
54191;SDS011;40101;53.002;6.488;2022-12-13T00:30:58;40.17;;;22.25;;
54191;SDS011;40101;53.002;6.488;2022-12-13T00:33:27;47.10;;;22.27;;
54191;SDS011;40101;53.002;6.488;2022-12-13T00:35:53;41.75;;;22.75;;
54191;SDS011;40101;53.002;6.488;2022-12-13T00:38:19;37.97;;;21.45;;
54191;SDS011;40101;53.002;6.488;2022-12-13T00:40:45;44.72;;;22.58;;
54191;SDS011;40101;53.002;6.488;2022-12-13T00:43:11;43.53;;;21.90;;
54191;SDS011;40101;53.002;6.488;2022-12-13T00:45:37;43.83;;;23.10;;
54191;SDS011;40101;53.002;6.488;2022-12-13T00:48:05;38.53;;;21.20;;
54191;SDS011;40101;53.002;6.488;2022-12-13T00:50:32;37.30;;;21.33;;
54191;SDS011;40101;53.002;6.488;2022-12-13T00:52:58;37.38;;;22.25;;
54191;SDS011;40101;53.002;6.488;2022-12-13T00:55:25;38.60;;;20.77;;
54191;SDS011;40101;53.002;6.488;2022-12-13T00:57:51;32.35;;;19.13;;
54191;SDS011;40101;53.002;6.488;2022-12-13T01:00:17;41.40;;;20.42;;
54191;SDS011;40101;53.002;6.488;2022-12-13T01:02:43;40.20;;;21.13;;
54191;SDS011;40101;53.002;6.488;2022-12-13T01:05:09;32.53;;;18.55;;
54191;SDS011;40101;53.002;6.488;2022-12-13T01:07:36;33.75;;;19.25;;
54191;SDS011;40101;53.002;6.488;2022-12-13T01:10:03;37.95;;;20.08;;
54191;SDS011;40101;53.002;6.488;2022-12-13T01:12:31;35.28;;;20.02;;
54191;SDS011;40101;53.002;6.488;2022-12-13T01:14:58;32.38;;;18.38;;
54191;SDS011;40101;53.002;6.488;2022-12-13T01:17:27;34.35;;;18.00;;
54191;SDS011;40101;53.002;6.488;2022-12-13T01:19:54;32.42;;;17.45;;
54191;SDS011;40101;53.002;6.488;2022-12-13T01:22:20;37.58;;;19.90;;
54191;SDS011;40101;53.002;6.488;2022-12-13T01:24:46;34.08;;;18.88;;
54191;SDS011;40101;53.002;6.488;2022-12-13T01:27:11;33.72;;;17.08;;
54191;SDS011;40101;53.002;6.488;2022-12-13T01:29:37;38.75;;;21.40;;
54191;SDS011;40101;53.002;6.488;2022-12-13T01:32:03;34.72;;;18.85;;
54191;SDS011;40101;53.002;6.488;2022-12-13T01:34:28;38.35;;;20.15;;
54191;SDS011;40101;53.002;6.488;2022-12-13T01:36:54;33.42;;;19.60;;
54191;SDS011;40101;53.002;6.488;2022-12-13T01:39:21;32.95;;;19.05;;
54191;SDS011;40101;53.002;6.488;2022-12-13T01:41:50;34.05;;;18.13;;
54191;SDS011;40101;53.002;6.488;2022-12-13T01:47:35;38.17;;;19.70;;
54191;SDS011;40101;53.002;6.488;2022-12-13T01:50:08;35.85;;;17.35;;
54191;SDS011;40101;53.002;6.488;2022-12-13T01:52:36;35.38;;;18.02;;
54191;SDS011;40101;53.002;6.488;2022-12-13T01:55:03;36.97;;;19.02;;
54191;SDS011;40101;53.002;6.488;2022-12-13T01:57:31;34.60;;;18.75;;
54191;SDS011;40101;53.002;6.488;2022-12-13T02:00:02;36.25;;;19.90;;
54191;SDS011;40101;53.002;6.488;2022-12-13T02:02:29;38.15;;;18.30;;
54191;SDS011;40101;53.002;6.488;2022-12-13T02:07:29;33.63;;;19.00;;
54191;SDS011;40101;53.002;6.488;2022-12-13T02:09:58;43.13;;;19.17;;
54191;SDS011;40101;53.002;6.488;2022-12-13T02:12:27;38.22;;;20.23;;
54191;SDS011;40101;53.002;6.488;2022-12-13T02:15:14;38.67;;;19.75;;
54191;SDS011;40101;53.002;6.488;2022-12-13T02:31:48;38.58;;;19.67;;
54191;SDS011;40101;53.002;6.488;2022-12-13T02:34:23;39.95;;;21.23;;
54191;SDS011;40101;53.002;6.488;2022-12-13T02:37:01;34.17;;;19.02;;
54191;SDS011;40101;53.002;6.488;2022-12-13T02:39:38;38.65;;;20.30;;
54191;SDS011;40101;53.002;6.488;2022-12-13T02:42:14;37.47;;;19.92;;
54191;SDS011;40101;53.002;6.488;2022-12-13T02:44:56;37.42;;;20.13;;
54191;SDS011;40101;53.002;6.488;2022-12-13T02:47:34;39.20;;;20.25;;
54191;SDS011;40101;53.002;6.488;2022-12-13T02:50:12;33.67;;;18.23;;
54191;SDS011;40101;53.002;6.488;2022-12-13T02:53:08;37.35;;;19.75;;
54191;SDS011;40101;53.002;6.488;2022-12-13T02:55:38;39.30;;;19.80;;
54191;SDS011;40101;53.002;6.488;2022-12-13T02:58:04;33.70;;;17.85;;
54191;SDS011;40101;53.002;6.488;2022-12-13T03:05:54;41.88;;;17.95;;
54191;SDS011;40101;53.002;6.488;2022-12-13T03:14:57;32.00;;;17.55;;
54191;SDS011;40101;53.002;6.488;2022-12-13T03:17:30;39.92;;;19.30;;
54191;SDS011;40101;53.002;6.488;2022-12-13T03:20:02;33.40;;;17.85;;
54191;SDS011;40101;53.002;6.488;2022-12-13T03:22:28;31.98;;;18.35;;
54191;SDS011;40101;53.002;6.488;2022-12-13T03:25:01;30.85;;;18.13;;
54191;SDS011;40101;53.002;6.488;2022-12-13T03:27:27;31.50;;;16.23;;
54191;SDS011;40101;53.002;6.488;2022-12-13T03:29:59;28.83;;;16.90;;
54191;SDS011;40101;53.002;6.488;2022-12-13T03:32:24;30.60;;;16.48;;
54191;SDS011;40101;53.002;6.488;2022-12-13T03:34:50;30.92;;;17.63;;
54191;SDS011;40101;53.002;6.488;2022-12-13T03:37:16;29.58;;;16.98;;
54191;SDS011;40101;53.002;6.488;2022-12-13T03:39:41;26.67;;;16.15;;
54191;SDS011;40101;53.002;6.488;2022-12-13T03:42:12;31.55;;;17.38;;
54191;SDS011;40101;53.002;6.488;2022-12-13T03:44:42;30.83;;;18.63;;
54191;SDS011;40101;53.002;6.488;2022-12-13T03:47:08;34.10;;;18.58;;
54191;SDS011;40101;53.002;6.488;2022-12-13T03:49:34;32.67;;;17.60;;
54191;SDS011;40101;53.002;6.488;2022-12-13T03:52:03;29.70;;;16.08;;
54191;SDS011;40101;53.002;6.488;2022-12-13T03:54:29;31.25;;;17.15;;
54191;SDS011;40101;53.002;6.488;2022-12-13T03:56:54;30.65;;;16.90;;
54191;SDS011;40101;53.002;6.488;2022-12-13T03:59:20;30.80;;;17.80;;
54191;SDS011;40101;53.002;6.488;2022-12-13T04:01:45;31.10;;;16.48;;
54191;SDS011;40101;53.002;6.488;2022-12-13T04:04:12;29.13;;;17.20;;
54191;SDS011;40101;53.002;6.488;2022-12-13T04:06:38;28.17;;;15.40;;
54191;SDS011;40101;53.002;6.488;2022-12-13T04:09:03;31.52;;;17.17;;
54191;SDS011;40101;53.002;6.488;2022-12-13T04:11:29;33.03;;;16.55;;
54191;SDS011;40101;53.002;6.488;2022-12-13T04:14:13;32.28;;;17.95;;
54191;SDS011;40101;53.002;6.488;2022-12-13T04:16:39;32.22;;;18.35;;
54191;SDS011;40101;53.002;6.488;2022-12-13T04:19:05;33.55;;;17.83;;
54191;SDS011;40101;53.002;6.488;2022-12-13T04:21:30;31.30;;;16.60;;
54191;SDS011;40101;53.002;6.488;2022-12-13T04:23:56;28.70;;;17.48;;
54191;SDS011;40101;53.002;6.488;2022-12-13T04:26:21;33.55;;;18.90;;
54191;SDS011;40101;53.002;6.488;2022-12-13T04:28:47;29.25;;;17.17;;
54191;SDS011;40101;53.002;6.488;2022-12-13T04:31:13;30.67;;;18.52;;
54191;SDS011;40101;53.002;6.488;2022-12-13T04:33:38;31.63;;;15.95;;
54191;SDS011;40101;53.002;6.488;2022-12-13T04:36:04;33.85;;;18.05;;
54191;SDS011;40101;53.002;6.488;2022-12-13T04:38:30;32.88;;;17.52;;
54191;SDS011;40101;53.002;6.488;2022-12-13T04:41:05;27.38;;;15.90;;
54191;SDS011;40101;53.002;6.488;2022-12-13T04:43:33;27.00;;;17.35;;
54191;SDS011;40101;53.002;6.488;2022-12-13T04:45:58;26.35;;;16.65;;
54191;SDS011;40101;53.002;6.488;2022-12-13T04:48:24;34.05;;;17.67;;
54191;SDS011;40101;53.002;6.488;2022-12-13T04:50:50;28.38;;;15.32;;
54191;SDS011;40101;53.002;6.488;2022-12-13T04:53:15;33.75;;;17.83;;
54191;SDS011;40101;53.002;6.488;2022-12-13T04:55:41;29.48;;;14.95;;
54191;SDS011;40101;53.002;6.488;2022-12-13T04:58:07;30.25;;;16.15;;
54191;SDS011;40101;53.002;6.488;2022-12-13T05:00:32;25.83;;;15.57;;
54191;SDS011;40101;53.002;6.488;2022-12-13T05:02:58;27.38;;;16.33;;
54191;SDS011;40101;53.002;6.488;2022-12-13T05:05:24;26.20;;;16.45;;
54191;SDS011;40101;53.002;6.488;2022-12-13T05:07:49;28.15;;;16.00;;
54191;SDS011;40101;53.002;6.488;2022-12-13T05:10:15;29.88;;;17.92;;
54191;SDS011;40101;53.002;6.488;2022-12-13T05:12:41;30.00;;;17.67;;
54191;SDS011;40101;53.002;6.488;2022-12-13T05:15:07;27.75;;;16.40;;
54191;SDS011;40101;53.002;6.488;2022-12-13T05:17:33;27.17;;;18.40;;
54191;SDS011;40101;53.002;6.488;2022-12-13T05:19:58;30.60;;;17.30;;
54191;SDS011;40101;53.002;6.488;2022-12-13T05:22:24;28.17;;;16.70;;
54191;SDS011;40101;53.002;6.488;2022-12-13T05:24:51;33.65;;;17.38;;
54191;SDS011;40101;53.002;6.488;2022-12-13T05:27:16;33.58;;;17.80;;
54191;SDS011;40101;53.002;6.488;2022-12-13T05:29:45;28.83;;;16.63;;
54191;SDS011;40101;53.002;6.488;2022-12-13T05:32:11;35.03;;;18.40;;
54191;SDS011;40101;53.002;6.488;2022-12-13T05:34:37;35.50;;;18.80;;
54191;SDS011;40101;53.002;6.488;2022-12-13T05:37:06;35.28;;;19.38;;
54191;SDS011;40101;53.002;6.488;2022-12-13T05:39:31;30.52;;;16.95;;
54191;SDS011;40101;53.002;6.488;2022-12-13T05:41:57;29.33;;;16.80;;
54191;SDS011;40101;53.002;6.488;2022-12-13T05:44:24;30.80;;;17.38;;
54191;SDS011;40101;53.002;6.488;2022-12-13T05:46:49;33.95;;;18.63;;
54191;SDS011;40101;53.002;6.488;2022-12-13T05:49:15;30.75;;;16.88;;
54191;SDS011;40101;53.002;6.488;2022-12-13T05:51:40;35.10;;;19.13;;
54191;SDS011;40101;53.002;6.488;2022-12-13T05:54:06;34.90;;;19.23;;
54191;SDS011;40101;53.002;6.488;2022-12-13T05:56:31;37.70;;;19.55;;
54191;SDS011;40101;53.002;6.488;2022-12-13T05:58:57;40.17;;;19.13;;
54191;SDS011;40101;53.002;6.488;2022-12-13T06:01:26;33.95;;;18.30;;
54191;SDS011;40101;53.002;6.488;2022-12-13T06:03:52;30.02;;;18.30;;
54191;SDS011;40101;53.002;6.488;2022-12-13T06:06:18;38.47;;;20.15;;
54191;SDS011;40101;53.002;6.488;2022-12-13T06:08:43;38.95;;;18.85;;
54191;SDS011;40101;53.002;6.488;2022-12-13T06:11:09;37.20;;;19.92;;
54191;SDS011;40101;53.002;6.488;2022-12-13T06:13:40;30.02;;;18.83;;
54191;SDS011;40101;53.002;6.488;2022-12-13T06:16:06;37.05;;;19.33;;
54191;SDS011;40101;53.002;6.488;2022-12-13T06:18:33;41.92;;;20.60;;
54191;SDS011;40101;53.002;6.488;2022-12-13T06:21:00;32.05;;;17.80;;
54191;SDS011;40101;53.002;6.488;2022-12-13T06:23:29;37.05;;;20.05;;
54191;SDS011;40101;53.002;6.488;2022-12-13T06:25:55;36.53;;;20.33;;
54191;SDS011;40101;53.002;6.488;2022-12-13T06:28:21;36.35;;;20.00;;
54191;SDS011;40101;53.002;6.488;2022-12-13T06:30:48;32.45;;;19.02;;
54191;SDS011;40101;53.002;6.488;2022-12-13T06:33:17;35.90;;;20.52;;
54191;SDS011;40101;53.002;6.488;2022-12-13T06:35:43;44.38;;;21.13;;
54191;SDS011;40101;53.002;6.488;2022-12-13T06:38:09;38.20;;;18.95;;
54191;SDS011;40101;53.002;6.488;2022-12-13T06:40:35;37.20;;;19.85;;
54191;SDS011;40101;53.002;6.488;2022-12-13T06:43:01;36.03;;;20.30;;
54191;SDS011;40101;53.002;6.488;2022-12-13T06:45:26;39.85;;;20.05;;
54191;SDS011;40101;53.002;6.488;2022-12-13T06:47:52;34.50;;;19.38;;
54191;SDS011;40101;53.002;6.488;2022-12-13T06:50:18;38.95;;;20.08;;
54191;SDS011;40101;53.002;6.488;2022-12-13T06:52:44;34.90;;;20.08;;
54191;SDS011;40101;53.002;6.488;2022-12-13T06:55:11;38.13;;;19.73;;
54191;SDS011;40101;53.002;6.488;2022-12-13T06:57:37;34.08;;;19.70;;
54191;SDS011;40101;53.002;6.488;2022-12-13T07:00:03;33.63;;;19.17;;
54191;SDS011;40101;53.002;6.488;2022-12-13T07:02:29;38.17;;;19.88;;
54191;SDS011;40101;53.002;6.488;2022-12-13T07:04:55;41.17;;;20.50;;
54191;SDS011;40101;53.002;6.488;2022-12-13T07:07:21;37.05;;;20.30;;
54191;SDS011;40101;53.002;6.488;2022-12-13T07:09:48;36.15;;;20.85;;
54191;SDS011;40101;53.002;6.488;2022-12-13T07:12:14;40.58;;;20.13;;
54191;SDS011;40101;53.002;6.488;2022-12-13T07:14:40;39.67;;;19.15;;
54191;SDS011;40101;53.002;6.488;2022-12-13T07:17:05;37.90;;;19.67;;
54191;SDS011;40101;53.002;6.488;2022-12-13T07:19:31;38.50;;;20.17;;
54191;SDS011;40101;53.002;6.488;2022-12-13T07:21:57;35.58;;;21.42;;
54191;SDS011;40101;53.002;6.488;2022-12-13T07:24:22;38.75;;;21.25;;
54191;SDS011;40101;53.002;6.488;2022-12-13T07:26:48;39.50;;;21.50;;
54191;SDS011;40101;53.002;6.488;2022-12-13T07:29:14;35.35;;;21.00;;
54191;SDS011;40101;53.002;6.488;2022-12-13T07:31:40;41.83;;;18.83;;
54191;SDS011;40101;53.002;6.488;2022-12-13T07:34:05;41.20;;;21.08;;
54191;SDS011;40101;53.002;6.488;2022-12-13T07:36:31;39.63;;;22.05;;
54191;SDS011;40101;53.002;6.488;2022-12-13T07:38:57;41.22;;;20.73;;
54191;SDS011;40101;53.002;6.488;2022-12-13T07:41:23;46.38;;;23.30;;
54191;SDS011;40101;53.002;6.488;2022-12-13T07:43:50;41.53;;;21.70;;
54191;SDS011;40101;53.002;6.488;2022-12-13T07:46:16;55.92;;;28.40;;
54191;SDS011;40101;53.002;6.488;2022-12-13T07:48:42;55.67;;;31.63;;
54191;SDS011;40101;53.002;6.488;2022-12-13T07:51:08;52.50;;;27.63;;
54191;SDS011;40101;53.002;6.488;2022-12-13T07:53:39;42.10;;;21.50;;
54191;SDS011;40101;53.002;6.488;2022-12-13T07:56:06;50.53;;;24.33;;
54191;SDS011;40101;53.002;6.488;2022-12-13T07:58:33;48.55;;;24.10;;
54191;SDS011;40101;53.002;6.488;2022-12-13T08:01:00;44.28;;;23.15;;
54191;SDS011;40101;53.002;6.488;2022-12-13T08:03:31;40.97;;;22.77;;
54191;SDS011;40101;53.002;6.488;2022-12-13T08:08:23;42.50;;;22.02;;
54191;SDS011;40101;53.002;6.488;2022-12-13T08:10:49;41.35;;;22.30;;
54191;SDS011;40101;53.002;6.488;2022-12-13T08:13:15;40.25;;;22.38;;
54191;SDS011;40101;53.002;6.488;2022-12-13T08:15:40;40.08;;;21.25;;
54191;SDS011;40101;53.002;6.488;2022-12-13T08:18:07;40.88;;;21.08;;
54191;SDS011;40101;53.002;6.488;2022-12-13T08:20:33;37.08;;;20.90;;
54191;SDS011;40101;53.002;6.488;2022-12-13T08:22:59;41.95;;;20.58;;
54191;SDS011;40101;53.002;6.488;2022-12-13T08:25:24;35.10;;;20.80;;
54191;SDS011;40101;53.002;6.488;2022-12-13T08:27:51;31.88;;;20.02;;
54191;SDS011;40101;53.002;6.488;2022-12-13T08:30:17;33.65;;;20.45;;
54191;SDS011;40101;53.002;6.488;2022-12-13T08:32:43;40.95;;;22.30;;
54191;SDS011;40101;53.002;6.488;2022-12-13T08:35:09;35.70;;;21.45;;
54191;SDS011;40101;53.002;6.488;2022-12-13T08:37:34;37.22;;;20.27;;
54191;SDS011;40101;53.002;6.488;2022-12-13T08:40:00;37.63;;;19.50;;
54191;SDS011;40101;53.002;6.488;2022-12-13T08:42:28;38.30;;;21.92;;
54191;SDS011;40101;53.002;6.488;2022-12-13T08:44:54;39.17;;;22.13;;
54191;SDS011;40101;53.002;6.488;2022-12-13T08:47:20;40.42;;;19.83;;
54191;SDS011;40101;53.002;6.488;2022-12-13T08:49:47;36.78;;;22.73;;
54191;SDS011;40101;53.002;6.488;2022-12-13T08:52:17;32.50;;;20.88;;
54191;SDS011;40101;53.002;6.488;2022-12-13T08:54:43;35.90;;;21.92;;
54191;SDS011;40101;53.002;6.488;2022-12-13T08:57:09;37.95;;;20.35;;
54191;SDS011;40101;53.002;6.488;2022-12-13T08:59:35;29.25;;;19.60;;
54191;SDS011;40101;53.002;6.488;2022-12-13T09:02:01;36.63;;;20.58;;
54191;SDS011;40101;53.002;6.488;2022-12-13T09:04:27;35.97;;;20.95;;
54191;SDS011;40101;53.002;6.488;2022-12-13T09:06:53;34.25;;;19.65;;
54191;SDS011;40101;53.002;6.488;2022-12-13T09:09:21;38.13;;;21.98;;
54191;SDS011;40101;53.002;6.488;2022-12-13T09:11:47;38.78;;;23.83;;
54191;SDS011;40101;53.002;6.488;2022-12-13T09:14:13;35.92;;;21.83;;
54191;SDS011;40101;53.002;6.488;2022-12-13T09:16:39;35.80;;;21.42;;
54191;SDS011;40101;53.002;6.488;2022-12-13T09:19:06;34.03;;;22.00;;
54191;SDS011;40101;53.002;6.488;2022-12-13T09:21:32;36.08;;;21.23;;
54191;SDS011;40101;53.002;6.488;2022-12-13T09:23:58;36.38;;;22.45;;
54191;SDS011;40101;53.002;6.488;2022-12-13T09:26:25;34.08;;;22.30;;
54191;SDS011;40101;53.002;6.488;2022-12-13T09:28:54;35.80;;;21.60;;
54191;SDS011;40101;53.002;6.488;2022-12-13T09:31:19;34.35;;;21.10;;
54191;SDS011;40101;53.002;6.488;2022-12-13T09:33:45;35.03;;;21.63;;
54191;SDS011;40101;53.002;6.488;2022-12-13T09:36:12;52.58;;;23.40;;
54191;SDS011;40101;53.002;6.488;2022-12-13T09:38:42;38.80;;;22.45;;
54191;SDS011;40101;53.002;6.488;2022-12-13T09:41:16;35.60;;;21.63;;
54191;SDS011;40101;53.002;6.488;2022-12-13T09:43:54;34.88;;;21.90;;
54191;SDS011;40101;53.002;6.488;2022-12-13T09:48:56;34.05;;;22.02;;
54191;SDS011;40101;53.002;6.488;2022-12-13T09:51:23;36.17;;;22.23;;
54191;SDS011;40101;53.002;6.488;2022-12-13T09:53:50;33.10;;;21.98;;
54191;SDS011;40101;53.002;6.488;2022-12-13T10:19:22;34.15;;;21.60;;
54191;SDS011;40101;53.002;6.488;2022-12-13T10:21:53;43.17;;;22.92;;
54191;SDS011;40101;53.002;6.488;2022-12-13T10:26:49;34.92;;;21.67;;
54191;SDS011;40101;53.002;6.488;2022-12-13T10:29:15;33.13;;;21.38;;
54191;SDS011;40101;53.002;6.488;2022-12-13T10:31:42;35.38;;;22.15;;
54191;SDS011;40101;53.002;6.488;2022-12-13T10:34:19;35.20;;;21.58;;
54191;SDS011;40101;53.002;6.488;2022-12-13T10:36:49;32.70;;;21.02;;
54191;SDS011;40101;53.002;6.488;2022-12-13T10:39:35;32.53;;;20.98;;
54191;SDS011;40101;53.002;6.488;2022-12-13T10:42:12;38.78;;;22.23;;
54191;SDS011;40101;53.002;6.488;2022-12-13T10:44:41;24.83;;;16.60;;
54191;SDS011;40101;53.002;6.488;2022-12-13T10:49:45;35.72;;;20.52;;
54191;SDS011;40101;53.002;6.488;2022-12-13T10:55:06;35.80;;;21.38;;
54191;SDS011;40101;53.002;6.488;2022-12-13T10:57:51;35.70;;;20.88;;
54191;SDS011;40101;53.002;6.488;2022-12-13T11:03:28;36.25;;;21.02;;
54191;SDS011;40101;53.002;6.488;2022-12-13T11:06:03;34.47;;;19.98;;
54191;SDS011;40101;53.002;6.488;2022-12-13T11:08:32;34.92;;;20.77;;
54191;SDS011;40101;53.002;6.488;2022-12-13T11:10:59;35.05;;;20.05;;
54191;SDS011;40101;53.002;6.488;2022-12-13T11:13:34;31.05;;;18.48;;
54191;SDS011;40101;53.002;6.488;2022-12-13T11:16:02;30.75;;;19.48;;
54191;SDS011;40101;53.002;6.488;2022-12-13T11:18:51;39.28;;;19.63;;
54191;SDS011;40101;53.002;6.488;2022-12-13T11:21:29;37.45;;;22.40;;
54191;SDS011;40101;53.002;6.488;2022-12-13T11:23:58;29.20;;;18.52;;
54191;SDS011;40101;53.002;6.488;2022-12-13T11:26:28;33.92;;;20.55;;
54191;SDS011;40101;53.002;6.488;2022-12-13T11:31:31;34.97;;;20.90;;
54191;SDS011;40101;53.002;6.488;2022-12-13T11:36:44;33.90;;;21.00;;
54191;SDS011;40101;53.002;6.488;2022-12-13T11:47:43;28.85;;;18.88;;
54191;SDS011;40101;53.002;6.488;2022-12-13T11:50:19;29.73;;;18.13;;
54191;SDS011;40101;53.002;6.488;2022-12-13T11:52:58;29.25;;;18.50;;
54191;SDS011;40101;53.002;6.488;2022-12-13T11:55:46;27.27;;;17.75;;
54191;SDS011;40101;53.002;6.488;2022-12-13T12:00:51;30.73;;;17.95;;
54191;SDS011;40101;53.002;6.488;2022-12-13T12:03:43;34.33;;;19.30;;
54191;SDS011;40101;53.002;6.488;2022-12-13T12:06:17;31.17;;;17.80;;
54191;SDS011;40101;53.002;6.488;2022-12-13T12:08:57;33.15;;;18.40;;
54191;SDS011;40101;53.002;6.488;2022-12-13T12:11:32;32.80;;;19.98;;
54191;SDS011;40101;53.002;6.488;2022-12-13T12:19:18;31.48;;;19.70;;
54191;SDS011;40101;53.002;6.488;2022-12-13T12:27:55;31.13;;;19.20;;
54191;SDS011;40101;53.002;6.488;2022-12-13T12:30:35;31.83;;;19.73;;
54191;SDS011;40101;53.002;6.488;2022-12-13T12:46:33;30.40;;;19.50;;
54191;SDS011;40101;53.002;6.488;2022-12-13T12:49:15;35.65;;;20.92;;
54191;SDS011;40101;53.002;6.488;2022-12-13T12:55:02;30.17;;;20.42;;
54191;SDS011;40101;53.002;6.488;2022-12-13T13:01:24;32.75;;;21.98;;
54191;SDS011;40101;53.002;6.488;2022-12-13T13:03:52;33.40;;;21.13;;
54191;SDS011;40101;53.002;6.488;2022-12-13T13:06:23;34.38;;;22.15;;
54191;SDS011;40101;53.002;6.488;2022-12-13T13:08:55;36.28;;;21.35;;
54191;SDS011;40101;53.002;6.488;2022-12-13T13:11:28;37.28;;;22.88;;
54191;SDS011;40101;53.002;6.488;2022-12-13T13:16:42;32.97;;;20.88;;
54191;SDS011;40101;53.002;6.488;2022-12-13T13:21:43;33.92;;;21.77;;
54191;SDS011;40101;53.002;6.488;2022-12-13T13:24:15;33.53;;;22.23;;
54191;SDS011;40101;53.002;6.488;2022-12-13T13:31:56;33.75;;;22.33;;
54191;SDS011;40101;53.002;6.488;2022-12-13T13:34:30;36.15;;;21.80;;
54191;SDS011;40101;53.002;6.488;2022-12-13T13:37:06;29.52;;;20.02;;
54191;SDS011;40101;53.002;6.488;2022-12-13T13:47:16;35.55;;;21.67;;
54191;SDS011;40101;53.002;6.488;2022-12-13T13:55:36;36.03;;;20.35;;
54191;SDS011;40101;53.002;6.488;2022-12-13T13:58:18;39.90;;;22.30;;
54191;SDS011;40101;53.002;6.488;2022-12-13T14:07:15;34.25;;;20.77;;
54191;SDS011;40101;53.002;6.488;2022-12-13T14:29:33;30.02;;;19.08;;
54191;SDS011;40101;53.002;6.488;2022-12-13T14:32:17;29.85;;;18.65;;
54191;SDS011;40101;53.002;6.488;2022-12-13T14:35:01;28.30;;;17.95;;
54191;SDS011;40101;53.002;6.488;2022-12-13T14:37:34;32.55;;;18.63;;
54191;SDS011;40101;53.002;6.488;2022-12-13T14:40:11;31.15;;;18.98;;
54191;SDS011;40101;53.002;6.488;2022-12-13T14:42:57;32.03;;;19.27;;
54191;SDS011;40101;53.002;6.488;2022-12-13T14:45:27;31.73;;;20.27;;
54191;SDS011;40101;53.002;6.488;2022-12-13T14:48:05;33.85;;;20.30;;
54191;SDS011;40101;53.002;6.488;2022-12-13T14:50:36;38.35;;;20.83;;
54191;SDS011;40101;53.002;6.488;2022-12-13T14:53:05;32.75;;;19.65;;
54191;SDS011;40101;53.002;6.488;2022-12-13T14:55:41;33.55;;;21.08;;
54191;SDS011;40101;53.002;6.488;2022-12-13T14:58:28;35.05;;;22.30;;
54191;SDS011;40101;53.002;6.488;2022-12-13T15:00:54;35.90;;;21.88;;
54191;SDS011;40101;53.002;6.488;2022-12-13T15:03:22;38.60;;;23.00;;
54191;SDS011;40101;53.002;6.488;2022-12-13T15:05:56;37.95;;;22.13;;
54191;SDS011;40101;53.002;6.488;2022-12-13T15:08:24;37.73;;;21.10;;
54191;SDS011;40101;53.002;6.488;2022-12-13T15:10:57;37.60;;;21.80;;
54191;SDS011;40101;53.002;6.488;2022-12-13T15:15:59;38.58;;;23.13;;
54191;SDS011;40101;53.002;6.488;2022-12-13T15:18:28;38.55;;;23.38;;
54191;SDS011;40101;53.002;6.488;2022-12-13T15:20:55;41.38;;;24.60;;
54191;SDS011;40101;53.002;6.488;2022-12-13T15:28:54;38.00;;;22.33;;
54191;SDS011;40101;53.002;6.488;2022-12-13T15:31:30;35.63;;;22.77;;
54191;SDS011;40101;53.002;6.488;2022-12-13T15:36:53;42.05;;;23.98;;
54191;SDS011;40101;53.002;6.488;2022-12-13T15:39:20;39.47;;;23.25;;
54191;SDS011;40101;53.002;6.488;2022-12-13T15:41:48;46.30;;;25.10;;
54191;SDS011;40101;53.002;6.488;2022-12-13T15:46:45;39.63;;;24.27;;
54191;SDS011;40101;53.002;6.488;2022-12-13T15:49:20;42.42;;;24.23;;
54191;SDS011;40101;53.002;6.488;2022-12-13T15:51:58;40.83;;;24.02;;
54191;SDS011;40101;53.002;6.488;2022-12-13T15:54:26;37.88;;;22.67;;
54191;SDS011;40101;53.002;6.488;2022-12-13T15:57:10;39.78;;;23.88;;
54191;SDS011;40101;53.002;6.488;2022-12-13T15:59:39;37.13;;;23.88;;
54191;SDS011;40101;53.002;6.488;2022-12-13T16:02:42;40.05;;;22.10;;
54191;SDS011;40101;53.002;6.488;2022-12-13T16:05:08;37.92;;;23.73;;
54191;SDS011;40101;53.002;6.488;2022-12-13T16:07:42;35.80;;;22.25;;
54191;SDS011;40101;53.002;6.488;2022-12-13T16:10:15;39.80;;;24.27;;
54191;SDS011;40101;53.002;6.488;2022-12-13T16:12:45;38.08;;;23.52;;
54191;SDS011;40101;53.002;6.488;2022-12-13T16:15:16;40.45;;;24.27;;
54191;SDS011;40101;53.002;6.488;2022-12-13T16:17:54;41.40;;;24.77;;
54191;SDS011;40101;53.002;6.488;2022-12-13T16:20:31;35.97;;;23.10;;
54191;SDS011;40101;53.002;6.488;2022-12-13T16:22:57;43.30;;;24.85;;
54191;SDS011;40101;53.002;6.488;2022-12-13T16:25:22;40.78;;;25.55;;
54191;SDS011;40101;53.002;6.488;2022-12-13T16:27:48;44.83;;;25.58;;
54191;SDS011;40101;53.002;6.488;2022-12-13T16:30:24;45.03;;;25.13;;
54191;SDS011;40101;53.002;6.488;2022-12-13T16:33:28;43.20;;;25.40;;
54191;SDS011;40101;53.002;6.488;2022-12-13T16:36:09;38.78;;;22.92;;
54191;SDS011;40101;53.002;6.488;2022-12-13T16:41:04;42.80;;;23.70;;
54191;SDS011;40101;53.002;6.488;2022-12-13T16:44:06;40.55;;;24.60;;
54191;SDS011;40101;53.002;6.488;2022-12-13T16:46:28;46.15;;;26.33;;
54191;SDS011;40101;53.002;6.488;2022-12-13T16:49:04;46.60;;;27.15;;
54191;SDS011;40101;53.002;6.488;2022-12-13T16:51:56;43.50;;;26.08;;
54191;SDS011;40101;53.002;6.488;2022-12-13T16:54:25;44.35;;;27.08;;
54191;SDS011;40101;53.002;6.488;2022-12-13T16:57:53;43.33;;;25.52;;
54191;SDS011;40101;53.002;6.488;2022-12-13T17:07:36;45.10;;;25.67;;
54191;SDS011;40101;53.002;6.488;2022-12-13T17:10:02;45.13;;;25.25;;
54191;SDS011;40101;53.002;6.488;2022-12-13T17:12:29;40.90;;;24.85;;
54191;SDS011;40101;53.002;6.488;2022-12-13T17:14:54;44.10;;;25.50;;
54191;SDS011;40101;53.002;6.488;2022-12-13T17:17:20;41.42;;;27.42;;
54191;SDS011;40101;53.002;6.488;2022-12-13T17:19:46;48.83;;;27.10;;
54191;SDS011;40101;53.002;6.488;2022-12-13T17:22:11;51.60;;;28.48;;
54191;SDS011;40101;53.002;6.488;2022-12-13T17:24:37;46.50;;;27.98;;
54191;SDS011;40101;53.002;6.488;2022-12-13T17:27:04;48.80;;;27.40;;
54191;SDS011;40101;53.002;6.488;2022-12-13T17:29:29;41.72;;;26.38;;
54191;SDS011;40101;53.002;6.488;2022-12-13T17:31:55;44.13;;;26.70;;
54191;SDS011;40101;53.002;6.488;2022-12-13T17:34:21;46.25;;;27.02;;
54191;SDS011;40101;53.002;6.488;2022-12-13T17:36:47;44.55;;;27.25;;
54191;SDS011;40101;53.002;6.488;2022-12-13T17:39:12;54.78;;;27.02;;
54191;SDS011;40101;53.002;6.488;2022-12-13T17:41:38;45.40;;;27.33;;
54191;SDS011;40101;53.002;6.488;2022-12-13T17:44:04;46.05;;;26.83;;
54191;SDS011;40101;53.002;6.488;2022-12-13T17:46:30;43.65;;;26.35;;